Time,TemperatureF,DewpointF,PressureIn,WindDirection,WindDirectionDegrees,WindSpeedMPH,WindSpeedGustMPH,Humidity,HourlyPrecipIn,Conditions,Clouds,dailyrainin,SoftwareType,DateUTC
2013-05-18 00:08:00,45.5,37.0,30.21,ENE,58,1.0,1.0,73,0.00,,,0.00,weatherlink.com 1.10,2013-05-18 04:08:00,
2013-05-18 00:23:00,45.5,38.0,30.22,ENE,58,1.0,1.0,74,0.00,,,0.00,weatherlink.com 1.10,2013-05-18 04:23:00,
2013-05-18 00:38:00,45.5,38.0,30.22,ENE,58,1.0,1.0,74,0.00,,,0.00,weatherlink.com 1.10,2013-05-18 04:38:00,
2013-05-18 00:53:00,45.3,38.0,30.22,ENE,58,1.0,1.0,75,0.00,,,0.00,weatherlink.com 1.10,2013-05-18 04:53:00,
2013-05-18 01:08:00,45.3,38.0,30.22,ENE,58,1.0,1.0,75,0.00,,,0.00,weatherlink.com 1.10,2013-05-18 05:08:00,
2013-05-18 01:23:00,45.2,38.0,30.22,ENE,58,1.0,1.0,75,0.00,,,0.00,weatherlink.com 1.10,2013-05-18 05:23:00,
2013-05-18 01:38:00,45.0,37.0,30.22,ENE,58,1.0,1.0,74,0.00,,,0.00,weatherlink.com 1.10,2013-05-18 05:38:00,
2013-05-18 01:53:00,44.9,37.0,30.22,ENE,58,1.0,1.0,74,0.00,,,0.00,weatherlink.com 1.10,2013-05-18 05:53:00,
2013-05-18 02:08:00,44.7,37.0,30.22,ENE,58,1.0,1.0,75,0.00,,,0.00,weatherlink.com 1.10,2013-05-18 06:08:00,
2013-05-18 02:23:00,44.7,37.0,30.22,ENE,58,1.0,1.0,75,0.00,,,0.00,weatherlink.com 1.10,2013-05-18 06:23:00,
2013-05-18 02:38:00,44.6,37.0,30.23,ENE,58,1.0,1.0,76,0.00,,,0.00,weatherlink.com 1.10,2013-05-18 06:38:00,
2013-05-18 02:53:00,44.5,38.0,30.22,ENE,58,1.0,1.0,77,0.00,,,0.00,weatherlink.com 1.10,2013-05-18 06:53:00,
2013-05-18 03:08:00,44.5,38.0,30.23,ENE,58,1.0,1.0,77,0.00,,,0.00,weatherlink.com 1.10,2013-05-18 07:08:00,
2013-05-18 03:24:00,44.3,38.0,30.23,ENE,58,1.0,1.0,77,0.00,,,0.00,weatherlink.com 1.10,2013-05-18 07:24:00,
2013-05-18 03:39:00,44.1,38.0,30.23,ENE,58,1.0,1.0,78,0.00,,,0.00,weatherlink.com 1.10,2013-05-18 07:39:00,
2013-05-18 03:54:00,43.9,38.0,30.23,ENE,58,1.0,1.0,79,0.00,,,0.00,weatherlink.com 1.10,2013-05-18 07:54:00,
2013-05-18 04:09:00,43.7,38.0,30.23,ENE,58,1.0,1.0,80,0.00,,,0.00,weatherlink.com 1.10,2013-05-18 08:09:00,
2013-05-18 04:24:00,43.5,38.0,30.24,ENE,58,1.0,1.0,80,0.00,,,0.00,weatherlink.com 1.10,2013-05-18 08:24:00,
2013-05-18 04:39:00,43.5,37.0,30.24,ENE,58,1.0,1.0,79,0.00,,,0.00,weatherlink.com 1.10,2013-05-18 08:39:00,
2013-05-18 04:54:00,43.2,37.0,30.24,ENE,58,0.0,1.0,79,0.00,,,0.00,weatherlink.com 1.10,2013-05-18 08:54:00,
2013-05-18 05:09:00,43.1,37.0,30.24,ENE,58,1.0,1.0,80,0.00,,,0.00,weatherlink.com 1.10,2013-05-18 09:09:00,
2013-05-18 05:24:00,43.1,38.0,30.25,ENE,58,0.0,1.0,81,0.00,,,0.00,weatherlink.com 1.10,2013-05-18 09:24:00,
2013-05-18 05:39:00,43.2,38.0,30.25,NE,56,0.0,1.0,81,0.00,,,0.00,weatherlink.com 1.10,2013-05-18 09:39:00,
2013-05-18 05:54:00,43.3,38.0,30.26,ENE,58,1.0,1.0,80,0.00,,,0.00,weatherlink.com 1.10,2013-05-18 09:54:00,
2013-05-18 06:09:00,43.5,38.0,30.26,ENE,57,1.0,1.0,80,0.00,,,0.00,weatherlink.com 1.10,2013-05-18 10:09:00,
2013-05-18 06:24:00,43.8,38.0,30.27,ENE,57,1.0,1.0,80,0.00,,,0.00,weatherlink.com 1.10,2013-05-18 10:24:00,
2013-05-18 06:39:00,44.2,39.0,30.27,ENE,58,1.0,1.0,81,0.00,,,0.00,weatherlink.com 1.10,2013-05-18 10:39:00,
2013-05-18 06:54:00,45.0,39.0,30.27,ENE,58,1.0,1.0,80,0.00,,,0.00,weatherlink.com 1.10,2013-05-18 10:54:00,
2013-05-18 07:09:00,46.2,39.0,30.28,ENE,60,1.0,1.0,77,0.00,,,0.00,weatherlink.com 1.10,2013-05-18 11:09:00,
2013-05-18 07:24:00,47.4,40.0,30.28,ENE,60,0.0,1.0,76,0.00,,,0.00,weatherlink.com 1.10,2013-05-18 11:24:00,
2013-05-18 07:39:00,48.4,41.0,30.28,ENE,59,0.0,1.0,75,0.00,,,0.00,weatherlink.com 1.10,2013-05-18 11:39:00,
2013-05-18 07:54:00,50.5,40.0,30.29,ENE,59,0.0,1.0,68,0.00,,,0.00,weatherlink.com 1.10,2013-05-18 11:54:00,
2013-05-18 08:09:00,52.1,40.0,30.29,NNW,345,1.0,2.0,63,0.00,,,0.00,weatherlink.com 1.10,2013-05-18 12:09:00,
2013-05-18 08:24:00,54.0,39.0,30.29,NW,312,3.0,4.0,57,0.00,,,0.00,weatherlink.com 1.10,2013-05-18 12:24:00,
2013-05-18 08:39:00,55.3,42.0,30.29,NNW,343,0.0,0.0,61,0.00,,,0.00,weatherlink.com 1.10,2013-05-18 12:39:00,
2013-05-18 08:55:00,55.6,39.0,30.30,NW,325,0.0,2.0,55,0.00,,,0.00,weatherlink.com 1.10,2013-05-18 12:55:00,
2013-05-18 09:10:00,56.1,38.0,30.29,NNE,13,3.0,4.0,51,0.00,,,0.00,weatherlink.com 1.10,2013-05-18 13:10:00,
2013-05-18 09:25:00,56.3,38.0,30.29,WNW,298,2.0,4.0,50,0.00,,,0.00,weatherlink.com 1.10,2013-05-18 13:25:00,
2013-05-18 09:40:00,57.2,39.0,30.29,South,177,2.0,5.0,52,0.00,,,0.00,weatherlink.com 1.10,2013-05-18 13:40:00,
2013-05-18 09:55:00,58.1,38.0,30.29,NNE,27,0.0,5.0,48,0.00,,,0.00,weatherlink.com 1.10,2013-05-18 13:55:00,
2013-05-18 10:10:00,59.8,38.0,30.29,SSE,153,2.0,6.0,45,0.00,,,0.00,weatherlink.com 1.10,2013-05-18 14:10:00,
2013-05-18 10:25:00,61.5,39.0,30.29,WNW,282,1.0,4.0,43,0.00,,,0.00,weatherlink.com 1.10,2013-05-18 14:25:00,
2013-05-18 10:40:00,61.7,38.0,30.29,WNW,288,2.0,4.0,41,0.00,,,0.00,weatherlink.com 1.10,2013-05-18 14:40:00,
2013-05-18 10:55:00,62.6,34.0,30.29,North,358,2.0,5.0,35,0.00,,,0.00,weatherlink.com 1.10,2013-05-18 14:55:00,
2013-05-18 11:10:00,63.4,38.0,30.29,WNW,292,4.0,4.0,39,0.00,,,0.00,weatherlink.com 1.10,2013-05-18 15:10:00,
2013-05-18 11:25:00,62.8,33.0,30.29,NW,323,1.0,5.0,33,0.00,,,0.00,weatherlink.com 1.10,2013-05-18 15:25:00,
2013-05-18 11:40:00,63.4,30.0,30.28,NW,308,0.0,5.0,28,0.00,,,0.00,weatherlink.com 1.10,2013-05-18 15:40:00,
2013-05-18 11:55:00,63.6,30.0,30.28,NNW,334,5.0,11.0,28,0.00,,,0.00,weatherlink.com 1.10,2013-05-18 15:55:00,
2013-05-18 12:10:00,63.5,30.0,30.27,SSE,156,1.0,6.0,28,0.00,,,0.00,weatherlink.com 1.10,2013-05-18 16:10:00,
2013-05-18 12:25:00,64.2,34.0,30.27,West,279,2.0,4.0,32,0.00,,,0.00,weatherlink.com 1.10,2013-05-18 16:25:00,
2013-05-18 12:40:00,64.7,31.0,30.27,West,273,1.0,5.0,28,0.00,,,0.00,weatherlink.com 1.10,2013-05-18 16:40:00,
2013-05-18 12:55:00,63.7,32.0,30.27,NW,319,1.0,10.0,30,0.00,,,0.00,weatherlink.com 1.10,2013-05-18 16:55:00,
2013-05-18 13:10:00,63.1,33.0,30.26,NNW,332,0.0,5.0,32,0.00,,,0.00,weatherlink.com 1.10,2013-05-18 17:10:00,
2013-05-18 13:25:00,63.7,32.0,30.26,NNW,345,1.0,5.0,30,0.00,,,0.00,weatherlink.com 1.10,2013-05-18 17:25:00,
2013-05-18 13:40:00,65.7,32.0,30.25,WNW,284,3.0,4.0,29,0.00,,,0.00,weatherlink.com 1.10,2013-05-18 17:40:00,
2013-05-18 13:55:00,65.1,34.0,30.24,West,281,3.0,7.0,32,0.00,,,0.00,weatherlink.com 1.10,2013-05-18 17:55:00,
2013-05-18 14:10:00,66.2,30.0,30.24,WNW,283,2.0,5.0,26,0.00,,,0.00,weatherlink.com 1.10,2013-05-18 18:10:00,
2013-05-18 14:25:00,64.3,29.0,30.24,NW,308,3.0,7.0,26,0.00,,,0.00,weatherlink.com 1.10,2013-05-18 18:25:00,
2013-05-18 14:41:00,63.2,31.0,30.23,WSW,249,1.0,4.0,30,0.00,,,0.00,weatherlink.com 1.10,2013-05-18 18:41:00,
2013-05-18 14:56:00,63.5,31.0,30.23,WNW,290,0.0,4.0,30,0.00,,,0.00,weatherlink.com 1.10,2013-05-18 18:56:00,
2013-05-18 15:11:00,64.1,31.0,30.22,NW,307,1.0,5.0,29,0.00,,,0.00,weatherlink.com 1.10,2013-05-18 19:11:00,
2013-05-18 15:26:00,65.3,32.0,30.22,West,280,3.0,6.0,29,0.00,,,0.00,weatherlink.com 1.10,2013-05-18 19:26:00,
2013-05-18 15:41:00,65.5,32.0,30.22,WNW,285,1.0,5.0,29,0.00,,,0.00,weatherlink.com 1.10,2013-05-18 19:41:00,
2013-05-18 15:56:00,66.4,34.0,30.22,WNW,302,3.0,4.0,30,0.00,,,0.00,weatherlink.com 1.10,2013-05-18 19:56:00,
2013-05-18 16:11:00,65.7,35.0,30.21,NW,305,3.0,7.0,32,0.00,,,0.00,weatherlink.com 1.10,2013-05-18 20:11:00,
2013-05-18 16:26:00,66.3,35.0,30.21,NW,305,2.0,3.0,31,0.00,,,0.00,weatherlink.com 1.10,2013-05-18 20:26:00,
2013-05-18 16:41:00,65.4,35.0,30.21,West,280,0.0,5.0,32,0.00,,,0.00,weatherlink.com 1.10,2013-05-18 20:41:00,
2013-05-18 16:56:00,65.7,36.0,30.21,WNW,290,2.0,4.0,34,0.00,,,0.00,weatherlink.com 1.10,2013-05-18 20:56:00,
2013-05-18 17:11:00,65.5,36.0,30.21,WSW,256,2.0,5.0,34,0.00,,,0.00,weatherlink.com 1.10,2013-05-18 21:11:00,
2013-05-18 17:26:00,65.9,35.0,30.20,NNE,17,2.0,4.0,32,0.00,,,0.00,weatherlink.com 1.10,2013-05-18 21:26:00,
2013-05-18 17:41:00,65.3,35.0,30.20,North,359,1.0,4.0,33,0.00,,,0.00,weatherlink.com 1.10,2013-05-18 21:41:00,
2013-05-18 17:56:00,64.4,35.0,30.20,NW,307,2.0,5.0,33,0.00,,,0.00,weatherlink.com 1.10,2013-05-18 21:56:00,
2013-05-18 18:11:00,64.6,35.0,30.21,WSW,255,0.0,2.0,33,0.00,,,0.00,weatherlink.com 1.10,2013-05-18 22:11:00,
2013-05-18 18:26:00,64.8,35.0,30.20,NW,314,0.0,2.0,33,0.00,,,0.00,weatherlink.com 1.10,2013-05-18 22:26:00,
2013-05-18 18:41:00,64.1,35.0,30.21,NW,310,1.0,2.0,34,0.00,,,0.00,weatherlink.com 1.10,2013-05-18 22:41:00,
2013-05-18 18:56:00,64.0,37.0,30.21,NW,315,1.0,3.0,37,0.00,,,0.00,weatherlink.com 1.10,2013-05-18 22:56:00,
2013-05-18 19:11:00,63.4,38.0,30.21,NW,315,0.0,0.0,39,0.00,,,0.00,weatherlink.com 1.10,2013-05-18 23:11:00,
2013-05-18 19:26:00,61.8,37.0,30.21,NW,319,0.0,0.0,40,0.00,,,0.00,weatherlink.com 1.10,2013-05-18 23:26:00,
2013-05-18 19:41:00,60.4,38.0,30.21,NW,319,0.0,1.0,44,0.00,,,0.00,weatherlink.com 1.10,2013-05-18 23:41:00,
2013-05-18 19:56:00,59.0,38.0,30.22,NW,319,0.0,1.0,45,0.00,,,0.00,weatherlink.com 1.10,2013-05-18 23:56:00,
2013-05-18 20:11:00,57.7,38.0,30.21,NW,319,0.0,1.0,48,0.00,,,0.00,weatherlink.com 1.10,2013-05-19 00:11:00,
2013-05-18 20:26:00,57.0,37.0,30.21,NW,319,0.0,1.0,48,0.00,,,0.00,weatherlink.com 1.10,2013-05-19 00:26:00,
2013-05-18 20:41:00,56.7,39.0,30.21,NW,319,0.0,1.0,51,0.00,,,0.00,weatherlink.com 1.10,2013-05-19 00:41:00,
2013-05-18 20:56:00,56.8,38.0,30.21,NW,319,0.0,0.0,50,0.00,,,0.00,weatherlink.com 1.10,2013-05-19 00:56:00,
2013-05-18 21:11:00,56.6,38.0,30.22,NW,319,0.0,0.0,50,0.00,,,0.00,weatherlink.com 1.10,2013-05-19 01:11:00,
2013-05-18 21:26:00,56.6,39.0,30.22,ESE,108,0.0,1.0,52,0.00,,,0.00,weatherlink.com 1.10,2013-05-19 01:26:00,
2013-05-18 21:41:00,56.6,39.0,30.22,ESE,112,0.0,1.0,52,0.00,,,0.00,weatherlink.com 1.10,2013-05-19 01:41:00,
2013-05-18 21:56:00,55.8,39.0,30.22,ESE,107,1.0,1.0,54,0.00,,,0.00,weatherlink.com 1.10,2013-05-19 01:56:00,
2013-05-18 22:11:00,55.3,38.0,30.22,ESE,107,0.0,1.0,53,0.00,,,0.00,weatherlink.com 1.10,2013-05-19 02:11:00,
2013-05-18 22:26:00,54.3,37.0,30.22,East,97,1.0,3.0,53,0.00,,,0.00,weatherlink.com 1.10,2013-05-19 02:26:00,
2013-05-18 22:41:00,54.1,38.0,30.22,NNE,32,0.0,2.0,54,0.00,,,0.00,weatherlink.com 1.10,2013-05-19 02:41:00,
2013-05-18 22:56:00,53.4,37.0,30.22,ESE,110,1.0,1.0,54,0.00,,,0.00,weatherlink.com 1.10,2013-05-19 02:56:00,
2013-05-18 23:11:00,52.8,37.0,30.21,ESE,110,0.0,1.0,56,0.00,,,0.00,weatherlink.com 1.10,2013-05-19 03:11:00,
2013-05-18 23:26:00,52.7,38.0,30.21,East,97,0.0,1.0,57,0.00,,,0.00,weatherlink.com 1.10,2013-05-19 03:26:00,
2013-05-18 23:41:00,53.1,38.0,30.21,East,100,0.0,1.0,57,0.00,,,0.00,weatherlink.com 1.10,2013-05-19 03:41:00,
2013-05-18 23:56:00,53.2,37.0,30.22,ESE,110,1.0,1.0,54,0.00,,,0.00,weatherlink.com 1.10,2013-05-19 03:56:00,